Time;durP1;ratioP1;P1;durP2;ratioP2;P2;SDS_P1;SDS_P2;PMS_P1;PMS_P2;Temp;Humidity;BMP_temperature;BMP_pressure;BME280_temperature;BME280_humidity;BME280_pressure;Samples;Min_cycle;Max_cycle;Signal;HPM_P1;HPM_P2
2023/03/27 00:00:44;;;;;;;7.75;0.85;;;3.50;99.90;;;;;;5102914;28;20036;-78
2023/03/27 00:03:12;;;;;;;3.83;0.60;;;3.40;99.90;;;;;;5103800;28;20036;-78
2023/03/27 00:05:39;;;;;;;11.30;0.57;;;3.40;99.90;;;;;;5084898;28;20119;-78
2023/03/27 00:08:08;;;;;;;13.63;0.95;;;3.60;99.90;;;;;;5103540;28;20043;-78
2023/03/27 00:10:34;;;;;;;10.40;1.00;;;3.40;99.90;;;;;;5085923;28;20540;-78
2023/03/27 00:13:02;;;;;;;11.73;1.10;;;3.90;99.90;;;;;;5068915;28;20075;-78
2023/03/27 00:15:29;;;;;;;11.35;1.30;;;3.30;99.90;;;;;;5086839;28;20043;-78
2023/03/27 00:17:57;;;;;;;6.78;0.90;;;3.30;99.90;;;;;;5102260;28;20055;-79
2023/03/27 00:20:25;;;;;;;10.18;1.20;;;4.00;99.90;;;;;;5087425;28;20046;-78
2023/03/27 00:22:55;;;;;;;5.43;0.98;;;3.20;99.90;;;;;;5101304;28;20092;-78
2023/03/27 00:25:22;;;;;;;5.97;1.33;;;3.90;99.90;;;;;;5103273;28;20091;-78
2023/03/27 00:27:48;;;;;;;9.20;0.80;;;3.20;99.90;;;;;;5102432;28;20035;-78
2023/03/27 00:30:14;;;;;;;6.85;0.85;;;3.10;99.90;;;;;;5051976;28;20046;-78
2023/03/27 00:32:41;;;;;;;8.68;0.98;;;3.90;99.90;;;;;;5069258;28;20165;-78
2023/03/27 00:35:08;;;;;;;4.30;1.77;;;3.10;99.90;;;;;;5084719;28;20062;-78
2023/03/27 00:37:35;;;;;;;10.40;0.77;;;3.10;99.90;;;;;;5103890;28;20043;-78
2023/03/27 00:40:01;;;;;;;6.40;1.00;;;3.10;99.90;;;;;;5085101;28;20054;-78
2023/03/27 00:42:27;;;;;;;5.93;1.50;;;3.10;99.90;;;;;;5086107;28;20140;-78
2023/03/27 00:44:53;;;;;;;8.15;1.20;;;3.10;99.90;;;;;;5102293;28;20048;-78
2023/03/27 00:47:46;;;;;;;7.38;1.15;;;3.10;99.90;;;;;;5102514;28;20047;-78
2023/03/27 00:50:19;;;;;;;16.58;1.00;;;3.10;99.90;;;;;;5083301;28;20056;-78
2023/03/27 00:52:50;;;;;;;3.58;0.47;;;3.10;99.90;;;;;;5084407;28;20487;-78
2023/03/27 00:55:19;;;;;;;7.15;0.95;;;3.20;99.90;;;;;;5103089;28;20039;-78
2023/03/27 00:57:51;;;;;;;8.15;1.30;;;3.20;99.90;;;;;;5102664;28;20391;-78
2023/03/27 01:00:18;;;;;;;8.32;0.80;;;4.10;99.90;;;;;;5102286;28;20506;-78
2023/03/27 01:02:47;;;;;;;6.57;0.98;;;3.20;99.90;;;;;;5103394;28;20504;-78
2023/03/27 01:05:14;;;;;;;4.47;0.60;;;3.20;99.90;;;;;;5101356;28;20043;-78
2023/03/27 01:07:41;;;;;;;6.38;1.20;;;3.10;99.90;;;;;;5086513;28;20510;-79
2023/03/27 01:10:09;;;;;;;4.22;0.60;;;3.20;99.90;;;;;;5101462;28;20048;-78
2023/03/27 01:12:41;;;;;;;9.02;1.05;;;3.20;99.90;;;;;;5086189;28;20075;-78
2023/03/27 01:15:26;;;;;;;9.13;0.88;;;3.10;99.90;;;;;;5102406;28;20127;-78
2023/03/27 01:18:05;;;;;;;6.40;1.92;;;3.10;99.90;;;;;;5102252;28;20466;-78
2023/03/27 01:20:49;;;;;;;5.53;0.60;;;3.10;99.90;;;;;;5103103;28;20521;-78
2023/03/27 01:23:33;;;;;;;2.75;0.73;;;3.00;99.90;;;;;;5101665;28;20483;-78
2023/03/27 01:26:24;;;;;;;6.03;1.13;;;3.70;99.90;;;;;;5085137;28;20135;-78
2023/03/27 01:29:08;;;;;;;4.97;0.70;;;3.00;99.90;;;;;;5086391;28;20039;-78
2023/03/27 01:31:40;;;;;;;5.95;0.85;;;2.90;99.90;;;;;;5102364;28;20055;-78
2023/03/27 01:34:43;;;;;;;5.72;1.20;;;2.90;99.90;;;;;;5089103;27;20082;-78
2023/03/27 01:37:36;;;;;;;11.57;1.40;;;2.90;99.90;;;;;;5110172;27;20108;-78
2023/03/27 01:40:15;;;;;;;1.63;0.93;;;2.80;99.90;;;;;;5108218;27;20090;-78
2023/03/27 01:42:57;;;;;;;13.23;0.98;;;2.80;99.90;;;;;;5092814;27;20316;-79
2023/03/27 01:45:47;;;;;;;11.20;0.80;;;2.80;99.90;;;;;;5092721;27;20051;-79
2023/03/27 01:48:35;;;;;;;5.65;0.52;;;2.70;99.90;;;;;;5107989;27;20050;-78
2023/03/27 01:51:09;;;;;;;7.55;1.00;;;2.60;99.90;;;;;;5097199;27;20421;-79
2023/03/27 01:53:51;;;;;;;5.22;0.80;;;2.60;99.90;;;;;;5108838;27;20054;-79
2023/03/27 01:56:31;;;;;;;8.30;0.82;;;2.60;99.90;;;;;;5108220;27;20054;-78
2023/03/27 01:59:05;;;;;;;4.32;0.55;;;2.60;99.90;;;;;;5110509;27;20047;-78
2023/03/27 02:01:36;;;;;;;7.45;1.10;;;2.60;99.90;;;;;;5091110;27;20039;-79
2023/03/27 02:04:04;;;;;;;8.18;1.30;;;2.60;99.90;;;;;;5092073;27;20129;-79
2023/03/27 02:06:42;;;;;;;7.18;0.70;;;3.50;99.90;;;;;;5109074;27;20123;-79
2023/03/27 02:09:21;;;;;;;4.95;2.33;;;2.60;99.90;;;;;;5090734;27;20545;-78
2023/03/27 02:12:10;;;;;;;6.45;1.02;;;2.70;99.90;;;;;;5109782;27;20383;-78
2023/03/27 02:14:44;;;;;;;6.38;1.00;;;2.80;99.90;;;;;;5107922;27;20046;-78
2023/03/27 02:17:13;;;;;;;9.05;1.25;;;2.90;99.90;;;;;;5108408;27;20055;-79
2023/03/27 02:19:59;;;;;;;11.50;1.02;;;3.90;99.90;;;;;;5108916;27;20096;-79
2023/03/27 02:22:25;;;;;;;9.13;1.30;;;3.00;99.90;;;;;;5090956;27;20109;-79
2023/03/27 02:24:55;;;;;;;7.70;0.88;;;3.00;99.90;;;;;;5092391;27;20035;-79
2023/03/27 02:27:28;;;;;;;9.40;1.42;;;4.20;99.90;;;;;;5091194;27;20110;-78
2023/03/27 02:30:09;;;;;;;7.43;1.40;;;3.00;99.90;;;;;;5108072;27;20421;-78
2023/03/27 02:33:23;;;;;;;5.75;0.90;;;3.00;99.90;;;;;;5091868;27;20137;-78
2023/03/27 02:36:15;;;;;;;10.95;1.35;;;3.00;99.90;;;;;;5025720;28;20144;-79
2023/03/27 02:38:46;;;;;;;9.60;2.15;;;3.10;99.90;;;;;;5107985;27;20486;-79
2023/03/27 02:41:41;;;;;;;7.97;1.13;;;3.10;99.90;;;;;;5092137;27;20051;-79
2023/03/27 02:44:29;;;;;;;8.68;0.90;;;3.10;99.90;;;;;;5106916;27;20047;-78
2023/03/27 02:47:01;;;;;;;8.27;1.50;;;3.10;99.90;;;;;;5108332;27;20376;-79
2023/03/27 02:49:33;;;;;;;5.43;1.27;;;3.10;99.90;;;;;;5108746;27;20035;-78
2023/03/27 02:52:05;;;;;;;6.90;1.65;;;3.10;99.90;;;;;;5106904;27;20303;-79
2023/03/27 02:54:39;;;;;;;2.85;0.73;;;3.30;99.90;;;;;;5092186;27;20080;-79
2023/03/27 02:57:10;;;;;;;6.30;1.13;;;3.20;99.90;;;;;;5106754;27;20122;-79
2023/03/27 02:59:44;;;;;;;4.03;1.20;;;4.40;99.90;;;;;;5108491;27;20426;-79
2023/03/27 03:02:16;;;;;;;9.20;0.88;;;3.00;99.90;;;;;;5090756;27;20099;-78
2023/03/27 03:04:47;;;;;;;4.85;0.80;;;2.90;99.90;;;;;;5106839;27;20043;-79
2023/03/27 03:07:14;;;;;;;4.65;0.90;;;2.90;99.90;;;;;;5108387;27;20532;-79
2023/03/27 03:09:41;;;;;;;4.13;0.60;;;2.80;99.90;;;;;;5072783;27;20058;-78
2023/03/27 03:12:07;;;;;;;6.47;1.25;;;4.00;99.90;;;;;;5108085;27;20039;-79
2023/03/27 03:14:37;;;;;;;7.43;1.23;;;2.70;99.90;;;;;;5106864;27;20044;-79
2023/03/27 03:17:02;;;;;;;8.38;1.23;;;2.70;99.90;;;;;;5107840;27;20387;-78
2023/03/27 03:19:28;;;;;;;10.57;1.63;;;2.60;99.90;;;;;;5074310;27;20054;-79
2023/03/27 03:21:54;;;;;;;9.95;1.25;;;4.10;99.90;;;;;;5072466;27;20049;-79
2023/03/27 03:24:21;;;;;;;7.32;1.27;;;2.70;99.90;;;;;;5108196;27;20039;-78
2023/03/27 03:26:50;;;;;;;4.70;0.88;;;4.00;99.90;;;;;;5089536;27;20595;-78
2023/03/27 03:29:17;;;;;;;6.95;1.00;;;2.60;99.90;;;;;;5091549;27;20141;-79
2023/03/27 03:31:44;;;;;;;12.65;1.25;;;2.80;99.90;;;;;;5090374;27;20438;-78
2023/03/27 03:34:11;;;;;;;10.48;1.30;;;2.60;99.90;;;;;;5106600;27;20051;-78
2023/03/27 03:36:37;;;;;;;13.57;1.13;;;2.60;99.90;;;;;;5090413;27;20043;-78
2023/03/27 03:39:04;;;;;;;2.95;0.73;;;3.50;99.90;;;;;;5106102;27;20085;-79
2023/03/27 03:41:30;;;;;;;7.28;1.08;;;4.10;99.90;;;;;;5108119;27;20123;-78
2023/03/27 03:43:56;;;;;;;10.65;1.40;;;2.50;99.90;;;;;;5072045;27;20499;-78
2023/03/27 03:46:21;;;;;;;7.75;1.17;;;2.50;99.90;;;;;;5073966;27;20043;-78
2023/03/27 03:48:47;;;;;;;9.98;1.08;;;2.50;99.90;;;;;;5106184;27;20035;-78
2023/03/27 03:51:13;;;;;;;3.22;0.95;;;2.50;99.90;;;;;;5089483;27;20047;-79
2023/03/27 03:53:38;;;;;;;7.80;1.05;;;2.50;99.90;;;;;;5089754;27;20047;-79
2023/03/27 03:56:04;;;;;;;10.65;0.98;;;2.60;99.90;;;;;;5072047;27;20406;-79
2023/03/27 03:58:30;;;;;;;9.07;0.95;;;2.60;99.90;;;;;;5089821;27;20047;-79
2023/03/27 04:00:56;;;;;;;8.75;0.85;;;2.60;99.90;;;;;;5105561;27;20061;-79
2023/03/27 04:03:25;;;;;;;5.63;1.00;;;2.60;99.90;;;;;;5125979;27;20043;-78
2023/03/27 04:05:53;;;;;;;10.65;1.48;;;2.60;99.90;;;;;;5089777;27;20536;-79
2023/03/27 04:08:19;;;;;;;9.88;1.33;;;2.60;99.90;;;;;;5106511;27;20161;-79
2023/03/27 04:10:46;;;;;;;9.88;1.70;;;3.40;99.90;;;;;;5107268;27;20519;-78
2023/03/27 04:13:12;;;;;;;6.60;1.17;;;2.50;99.90;;;;;;5089338;27;20134;-79
2023/03/27 04:15:38;;;;;;;7.90;1.10;;;2.40;99.90;;;;;;5108150;27;20546;-79
2023/03/27 04:18:04;;;;;;;8.43;1.13;;;2.40;99.90;;;;;;5088403;27;20062;-79
2023/03/27 04:20:33;;;;;;;7.50;1.30;;;2.40;99.90;;;;;;5090479;27;20051;-79
2023/03/27 04:23:02;;;;;;;11.82;2.53;;;2.40;99.90;;;;;;5106556;27;20216;-79
2023/03/27 04:25:28;;;;;;;7.25;1.00;;;2.40;99.90;;;;;;5107168;27;20645;-78
2023/03/27 04:27:55;;;;;;;13.40;1.63;;;2.40;99.90;;;;;;5073805;27;20039;-79
2023/03/27 04:30:23;;;;;;;6.65;1.02;;;2.50;99.90;;;;;;5106346;27;20047;-81
2023/03/27 04:32:50;;;;;;;6.53;1.10;;;3.60;99.90;;;;;;5090679;27;20057;-79
2023/03/27 04:35:18;;;;;;;6.70;0.90;;;2.60;99.90;;;;;;5106510;28;20440;-79
2023/03/27 04:37:45;;;;;;;7.28;0.88;;;2.70;99.90;;;;;;5107629;28;20051;-80
2023/03/27 04:40:13;;;;;;;7.18;1.52;;;2.70;99.90;;;;;;5105536;28;20043;-78
2023/03/27 04:42:42;;;;;;;5.65;0.65;;;2.80;99.90;;;;;;5105930;28;20039;-80
2023/03/27 04:45:16;;;;;;;2.45;0.60;;;4.50;99.90;;;;;;5106940;28;20043;-80
2023/03/27 04:47:42;;;;;;;3.85;0.57;;;2.90;99.90;;;;;;5104970;28;20047;-78
2023/03/27 04:50:10;;;;;;;11.65;0.80;;;3.00;99.90;;;;;;5090444;28;20072;-80
2023/03/27 04:52:35;;;;;;;4.72;0.73;;;3.00;99.90;;;;;;5071161;28;20043;-80
2023/03/27 04:55:03;;;;;;;6.93;0.65;;;3.10;99.90;;;;;;5073248;28;20031;-80
2023/03/27 04:57:30;;;;;;;5.13;0.43;;;3.00;99.90;;;;;;5105650;28;20043;-80
2023/03/27 04:59:58;;;;;;;5.68;1.00;;;3.10;99.90;;;;;;5088365;28;20054;-79
2023/03/27 05:02:27;;;;;;;8.90;0.47;;;3.00;99.90;;;;;;5090529;28;20053;-80
2023/03/27 05:04:57;;;;;;;4.13;0.30;;;3.00;99.90;;;;;;5088095;28;20180;-79
2023/03/27 05:07:27;;;;;;;1.30;0.35;;;3.00;99.90;;;;;;5090990;28;20453;-79
2023/03/27 05:09:53;;;;;;;4.63;0.40;;;2.90;99.90;;;;;;5125337;27;20089;-79
2023/03/27 05:12:20;;;;;;;4.43;0.40;;;2.90;99.90;;;;;;5110581;27;20083;-83
2023/03/27 05:14:47;;;;;;;1.02;0.30;;;2.80;99.90;;;;;;5076647;27;20180;-81
2023/03/27 05:17:14;;;;;;;4.72;0.50;;;2.80;99.90;;;;;;5109075;27;20079;-79
2023/03/27 05:19:40;;;;;;;2.08;0.30;;;2.80;99.90;;;;;;5093417;27;20509;-80
2023/03/27 05:22:06;;;;;;;6.30;0.90;;;2.70;99.90;;;;;;5091548;27;20043;-79
2023/03/27 05:24:32;;;;;;;8.07;0.60;;;2.70;99.90;;;;;;5093534;27;20051;-80
2023/03/27 05:27:01;;;;;;;2.90;0.43;;;2.70;99.90;;;;;;5109209;27;20053;-84
2023/03/27 05:29:26;;;;;;;0.73;0.47;;;2.60;99.90;;;;;;5109924;27;20039;-85
2023/03/27 05:31:52;;;;;;;5.28;0.60;;;3.70;99.90;;;;;;5075957;27;20096;-79
2023/03/27 05:34:20;;;;;;;6.00;0.65;;;2.60;99.90;;;;;;5108938;27;20471;-79
2023/03/27 05:36:46;;;;;;;2.28;0.43;;;2.50;99.90;;;;;;5076472;27;20095;-80
2023/03/27 05:39:13;;;;;;;2.63;0.30;;;2.50;99.90;;;;;;5091861;27;20548;-80
2023/03/27 05:41:40;;;;;;;3.65;1.13;;;2.50;99.90;;;;;;5060374;27;20043;-80
2023/03/27 05:44:06;;;;;;;2.53;0.65;;;2.40;99.90;;;;;;5108111;27;20055;-78
2023/03/27 05:46:31;;;;;;;6.47;0.60;;;2.40;99.90;;;;;;5109404;27;20120;-78
2023/03/27 05:49:00;;;;;;;2.47;0.60;;;2.40;99.90;;;;;;5092018;27;20039;-78
2023/03/27 05:51:26;;;;;;;5.88;0.57;;;2.40;99.90;;;;;;5091760;27;20475;-78
2023/03/27 05:53:52;;;;;;;3.15;0.88;;;2.40;99.90;;;;;;5075805;27;20069;-79
2023/03/27 05:56:17;;;;;;;9.23;1.25;;;2.40;99.90;;;;;;5091235;27;20481;-79
2023/03/27 05:58:43;;;;;;;6.78;0.52;;;2.40;99.90;;;;;;5093077;27;20497;-79
2023/03/27 06:01:10;;;;;;;2.60;0.70;;;2.30;99.90;;;;;;5108022;27;20089;-79
2023/03/27 06:03:37;;;;;;;2.83;0.60;;;2.30;99.90;;;;;;5092647;27;20063;-78
2023/03/27 06:06:10;;;;;;;6.78;0.73;;;2.30;99.90;;;;;;5091974;27;20039;-79
2023/03/27 06:08:37;;;;;;;6.70;1.00;;;2.30;99.90;;;;;;5108074;27;20051;-78
2023/03/27 06:11:14;;;;;;;6.72;0.68;;;2.30;99.90;;;;;;5128268;27;20406;-79
2023/03/27 06:13:40;;;;;;;8.82;0.75;;;2.40;99.90;;;;;;5090566;27;20047;-79
2023/03/27 06:16:06;;;;;;;8.27;0.70;;;2.40;99.90;;;;;;5109538;27;20049;-79
2023/03/27 06:18:33;;;;;;;6.82;1.83;;;2.50;99.90;;;;;;5090903;27;20043;-79
2023/03/27 06:20:59;;;;;;;5.20;0.75;;;2.50;99.90;;;;;;5108449;27;20657;-79
2023/03/27 06:23:25;;;;;;;6.90;0.88;;;3.30;99.90;;;;;;5091405;27;20082;-79
2023/03/27 06:25:51;;;;;;;8.93;0.77;;;2.60;99.90;;;;;;5107725;27;20054;-79
2023/03/27 06:28:19;;;;;;;6.20;0.88;;;2.60;99.90;;;;;;5092512;27;20143;-79
2023/03/27 06:30:48;;;;;;;6.82;0.80;;;2.70;99.90;;;;;;5090274;27;20043;-79
2023/03/27 06:33:14;;;;;;;4.65;0.68;;;3.30;99.90;;;;;;5088153;28;20158;-79
2023/03/27 06:35:42;;;;;;;5.40;0.90;;;2.80;99.90;;;;;;5086998;28;20048;-79
2023/03/27 06:38:08;;;;;;;9.85;1.02;;;2.90;99.90;;;;;;5104557;28;20067;-79
2023/03/27 06:40:34;;;;;;;9.77;1.00;;;3.00;99.90;;;;;;5071045;28;20040;-79
2023/03/27 06:43:00;;;;;;;8.85;0.82;;;3.10;99.90;;;;;;5086767;28;20470;-79
2023/03/27 06:45:30;;;;;;;5.40;0.90;;;3.20;99.90;;;;;;5105383;28;20097;-79
2023/03/27 06:47:58;;;;;;;10.20;1.38;;;3.20;99.90;;;;;;5086140;28;20042;-78
2023/03/27 06:50:25;;;;;;;20.55;2.20;;;3.40;99.90;;;;;;5105361;28;20040;-78
2023/03/27 06:52:51;;;;;;;5.45;1.13;;;3.50;99.90;;;;;;5103913;28;20491;-78
2023/03/27 06:55:19;;;;;;;6.97;0.90;;;3.60;99.90;;;;;;5087484;28;20050;-79
2023/03/27 06:57:47;;;;;;;5.40;1.00;;;3.80;99.90;;;;;;5088220;28;20122;-82
2023/03/27 07:00:18;;;;;;;6.80;1.75;;;4.80;99.90;;;;;;5086833;28;20042;-79
2023/03/27 07:02:48;;;;;;;6.90;0.93;;;4.30;99.90;;;;;;5105733;28;20427;-78
2023/03/27 07:05:14;;;;;;;8.32;0.90;;;4.60;99.90;;;;;;5103050;28;20131;-78
2023/03/27 07:07:41;;;;;;;11.00;1.63;;;4.70;99.90;;;;;;5087862;28;20134;-78
2023/03/27 07:10:09;;;;;;;10.98;1.20;;;4.90;99.90;;;;;;5103862;28;20400;-78
2023/03/27 07:12:35;;;;;;;8.00;0.73;;;5.00;99.90;;;;;;5103592;28;20043;-78
2023/03/27 07:15:01;;;;;;;9.68;1.05;;;5.30;99.90;;;;;;5104461;28;20043;-78
2023/03/27 07:17:27;;;;;;;12.02;1.25;;;5.00;99.90;;;;;;5085840;28;20050;-78
2023/03/27 07:19:52;;;;;;;6.30;1.60;;;4.90;99.90;;;;;;5105162;28;20055;-78
2023/03/27 07:22:18;;;;;;;11.38;1.40;;;4.70;99.90;;;;;;5085622;28;20426;-79
2023/03/27 07:24:44;;;;;;;9.15;1.05;;;4.60;99.90;;;;;;5071019;28;20120;-78
2023/03/27 07:27:10;;;;;;;7.97;0.82;;;4.50;99.90;;;;;;5085933;28;20047;-78
2023/03/27 07:29:36;;;;;;;6.40;0.90;;;4.40;99.90;;;;;;5086485;28;20044;-78
2023/03/27 07:32:03;;;;;;;5.53;0.82;;;4.50;99.90;;;;;;5102947;28;20088;-78
2023/03/27 07:34:28;;;;;;;8.02;0.80;;;4.70;99.90;;;;;;5085932;28;20048;-78
2023/03/27 07:36:56;;;;;;;9.13;1.33;;;4.90;99.90;;;;;;5087926;28;20067;-78
2023/03/27 07:39:22;;;;;;;5.65;1.08;;;5.00;99.90;;;;;;5086244;28;20044;-78
2023/03/27 07:41:48;;;;;;;4.70;0.75;;;5.20;99.90;;;;;;5104279;28;20048;-78
2023/03/27 07:44:13;;;;;;;5.78;0.60;;;4.90;99.90;;;;;;5085768;28;20052;-78
2023/03/27 07:46:40;;;;;;;2.95;0.63;;;6.40;99.90;;;;;;5103089;28;20126;-78
2023/03/27 07:49:07;;;;;;;2.80;0.65;;;4.90;99.90;;;;;;5086673;28;20096;-78
2023/03/27 07:51:33;;;;;;;4.28;0.60;;;4.80;99.90;;;;;;5102622;28;20048;-78
2023/03/27 07:54:03;;;;;;;3.92;0.45;;;4.80;99.90;;;;;;5104456;28;20051;-78
2023/03/27 07:56:30;;;;;;;7.07;0.90;;;4.80;99.90;;;;;;5102552;28;20047;-78
2023/03/27 07:58:56;;;;;;;5.65;0.57;;;4.80;99.90;;;;;;5103647;28;20051;-78
2023/03/27 08:01:22;;;;;;;4.72;1.00;;;4.90;99.90;;;;;;5101825;28;20046;-78
2023/03/27 08:03:48;;;;;;;2.20;0.40;;;4.90;99.90;;;;;;5102723;28;20096;-78
2023/03/27 08:06:14;;;;;;;3.42;0.50;;;5.90;99.90;;;;;;5085782;28;20031;-79
2023/03/27 08:08:40;;;;;;;4.10;0.45;;;4.80;99.90;;;;;;5085065;28;20095;-78
2023/03/27 08:11:06;;;;;;;3.38;0.60;;;4.80;99.90;;;;;;5069839;28;20048;-78
2023/03/27 08:13:32;;;;;;;7.38;1.50;;;4.90;99.90;;;;;;5067828;28;20079;-78
2023/03/27 08:16:05;;;;;;;6.40;0.80;;;4.70;99.90;;;;;;5086578;28;20533;-78
2023/03/27 08:18:31;;;;;;;4.05;1.02;;;5.20;99.90;;;;;;5101423;28;20043;-78
2023/03/27 08:20:58;;;;;;;3.22;0.70;;;5.30;99.90;;;;;;5102480;28;20067;-78
2023/03/27 08:23:26;;;;;;;1.92;0.47;;;7.00;99.90;;;;;;5102206;28;20110;-79
2023/03/27 08:25:59;;;;;;;3.53;1.75;;;5.80;99.90;;;;;;5101882;28;20051;-78
2023/03/27 08:28:34;;;;;;;6.63;1.30;;;5.70;99.90;;;;;;5104129;28;20043;-79
2023/03/27 08:31:07;;;;;;;8.43;1.00;;;7.10;99.90;;;;;;5084762;28;20043;-79
2023/03/27 08:33:33;;;;;;;6.68;0.80;;;5.90;99.90;;;;;;5086027;28;20146;-78
2023/03/27 08:35:59;;;;;;;4.78;0.77;;;7.60;99.90;;;;;;5102351;28;20594;-78
2023/03/27 08:38:27;;;;;;;11.15;0.73;;;6.30;99.90;;;;;;5085465;28;20119;-78
2023/03/27 08:40:57;;;;;;;5.20;0.65;;;6.60;99.90;;;;;;5103567;28;20052;-79
2023/03/27 08:43:28;;;;;;;7.57;0.70;;;7.00;99.90;;;;;;5102058;28;20047;-79
2023/03/27 08:46:04;;;;;;;8.07;0.93;;;6.70;99.90;;;;;;5087142;28;20474;-79
2023/03/27 08:48:33;;;;;;;6.55;0.85;;;6.70;99.90;;;;;;5101785;28;20142;-79
2023/03/27 08:51:04;;;;;;;4.80;0.70;;;7.20;99.90;;;;;;5102986;28;20036;-79
2023/03/27 08:53:45;;;;;;;5.00;0.90;;;6.60;99.90;;;;;;5102620;28;20097;-79
2023/03/27 08:56:15;;;;;;;5.20;1.42;;;6.60;99.90;;;;;;5102363;28;20062;-79
2023/03/27 08:58:42;;;;;;;4.15;0.70;;;6.60;99.90;;;;;;5086789;28;20053;-79
2023/03/27 09:01:40;;;;;;;6.53;0.73;;;7.30;99.90;;;;;;5101871;28;20043;-78
2023/03/27 09:04:27;;;;;;;2.83;0.50;;;6.60;99.90;;;;;;5102198;28;20075;-78
2023/03/27 09:07:04;;;;;;;7.75;0.60;;;6.60;99.90;;;;;;5103400;28;20051;-79
2023/03/27 09:09:37;;;;;;;4.95;0.50;;;6.80;99.90;;;;;;5101955;28;20611;-79
2023/03/27 09:12:11;;;;;;;1.67;0.20;;;7.70;99.90;;;;;;5085833;28;20051;-79
2023/03/27 09:14:53;;;;;;;6.40;0.63;;;7.30;99.90;;;;;;5102306;28;20100;-79
2023/03/27 09:17:22;;;;;;;2.10;0.57;;;7.60;99.90;;;;;;5102194;28;20063;-79
2023/03/27 09:19:54;;;;;;;3.95;0.22;;;7.80;99.90;;;;;;5103178;28;20051;-79
2023/03/27 09:22:28;;;;;;;2.97;0.40;;;7.90;99.90;;;;;;5084421;28;20044;-78
2023/03/27 09:24:56;;;;;;;1.98;0.40;;;8.00;99.90;;;;;;5102807;28;20498;-78
2023/03/27 09:27:32;;;;;;;6.38;1.05;;;8.10;99.90;;;;;;5085229;28;20072;-79
2023/03/27 09:30:25;;;;;;;2.00;0.50;;;8.50;99.90;;;;;;5101596;28;20140;-78
2023/03/27 09:32:56;;;;;;;3.63;0.50;;;8.10;99.90;;;;;;5087963;27;20156;-80
2023/03/27 09:35:22;;;;;;;9.95;0.77;;;8.10;99.90;;;;;;5087404;28;20050;-79
2023/03/27 09:37:57;;;;;;;2.83;0.38;;;8.30;99.90;;;;;;5089421;28;20355;-79
2023/03/27 09:40:32;;;;;;;4.72;0.73;;;8.70;99.90;;;;;;5105238;28;20545;-79
2023/03/27 09:43:11;;;;;;;5.25;0.50;;;8.50;99.90;;;;;;5105344;28;20402;-79
2023/03/27 09:45:39;;;;;;;6.82;0.50;;;8.40;99.90;;;;;;5106925;28;20082;-79
2023/03/27 09:48:25;;;;;;;4.40;0.40;;;9.60;99.90;;;;;;5087961;28;20537;-79
2023/03/27 09:50:50;;;;;;;6.32;0.60;;;8.50;99.90;;;;;;5088836;28;20091;-79
2023/03/27 09:53:19;;;;;;;5.80;0.70;;;8.40;99.90;;;;;;5071550;28;20137;-79
2023/03/27 09:55:51;;;;;;;5.93;1.40;;;8.40;99.90;;;;;;5089889;27;20460;-78
2023/03/27 09:58:17;;;;;;;3.15;0.45;;;8.80;99.90;;;;;;5110001;27;20039;-79
2023/03/27 10:00:43;;;;;;;6.60;1.10;;;8.20;99.90;;;;;;5107844;27;20047;-79
2023/03/27 10:03:19;;;;;;;7.50;0.65;;;8.20;99.90;;;;;;5109585;27;20046;-78
2023/03/27 10:05:45;;;;;;;4.53;1.13;;;8.60;99.90;;;;;;5091007;27;20066;-78
2023/03/27 10:08:40;;;;;;;7.40;0.80;;;8.70;99.90;;;;;;5108517;27;20051;-79
2023/03/27 10:11:13;;;;;;;4.80;0.40;;;8.90;99.90;;;;;;5108139;27;20494;-78
2023/03/27 10:13:45;;;;;;;8.45;0.50;;;8.80;99.90;;;;;;5108141;27;20122;-78
2023/03/27 10:16:11;;;;;;;6.53;0.37;;;8.50;99.90;;;;;;5109483;27;20042;-78
2023/03/27 10:18:43;;;;;;;8.32;1.30;;;8.30;99.90;;;;;;5090861;27;20047;-78
2023/03/27 10:21:16;;;;;;;7.38;0.63;;;8.30;99.90;;;;;;5108787;27;20695;-78
2023/03/27 10:23:48;;;;;;;3.70;0.50;;;8.60;99.90;;;;;;5109359;27;20096;-78
2023/03/27 10:26:24;;;;;;;3.58;0.63;;;9.00;99.90;;;;;;5107382;27;20130;-78
2023/03/27 10:28:51;;;;;;;5.78;0.43;;;9.00;99.90;;;;;;5109386;27;20043;-78
2023/03/27 10:31:24;;;;;;;5.80;0.60;;;9.10;99.90;;;;;;5107411;27;20134;-78
2023/03/27 10:33:51;;;;;;;6.65;0.88;;;9.40;99.90;;;;;;5107810;27;20058;-78
2023/03/27 10:36:17;;;;;;;9.73;0.57;;;9.60;99.90;;;;;;5091696;27;20035;-78
2023/03/27 10:38:50;;;;;;;1.42;0.30;;;9.90;99.90;;;;;;5125958;27;20046;-78
2023/03/27 10:41:17;;;;;;;4.50;0.50;;;10.00;99.90;;;;;;5109990;27;20050;-78
2023/03/27 10:43:46;;;;;;;7.85;0.68;;;9.80;99.90;;;;;;5090552;27;20046;-78
2023/03/27 10:46:22;;;;;;;5.78;0.47;;;9.60;99.90;;;;;;5091836;27;20039;-79
2023/03/27 10:49:13;;;;;;;4.20;0.40;;;9.40;99.20;;;;;;5108545;27;20047;-78
2023/03/27 10:51:50;;;;;;;4.30;0.90;;;9.10;97.70;;;;;;5107467;27;20047;-78
2023/03/27 10:54:26;;;;;;;6.78;0.63;;;9.10;98.80;;;;;;5109305;27;20079;-78
2023/03/27 10:57:04;;;;;;;8.90;1.45;;;9.40;99.30;;;;;;5106922;27;20118;-78
2023/03/27 10:59:53;;;;;;;4.32;0.60;;;9.60;99.00;;;;;;5107834;27;20502;-78
2023/03/27 11:02:37;;;;;;;5.65;0.52;;;9.80;98.40;;;;;;5099684;27;20564;-78
2023/03/27 11:05:20;;;;;;;4.90;0.60;;;9.80;97.90;;;;;;5089809;27;20498;-78
2023/03/27 11:08:07;;;;;;;7.80;0.90;;;9.70;98.50;;;;;;5106884;27;20543;-78
2023/03/27 11:10:40;;;;;;;6.10;0.60;;;9.90;99.10;;;;;;5091177;27;20049;-78
2023/03/27 11:13:25;;;;;;;8.40;0.80;;;10.10;98.60;;;;;;5106844;27;20043;-78
2023/03/27 11:16:41;;;;;;;6.43;0.70;;;10.40;98.40;;;;;;5108570;27;20039;-78
2023/03/27 11:19:10;;;;;;;8.73;0.95;;;10.70;97.00;;;;;;5104128;27;20119;-78
2023/03/27 11:21:56;;;;;;;6.28;0.68;;;10.60;96.90;;;;;;5125297;27;20093;-78
2023/03/27 11:24:31;;;;;;;2.92;0.60;;;9.90;98.50;;;;;;5108867;27;20043;-78
2023/03/27 11:27:13;;;;;;;6.03;0.88;;;9.10;99.90;;;;;;5106835;27;20482;-78
2023/03/27 11:29:49;;;;;;;7.20;0.60;;;8.40;99.90;;;;;;5089916;27;20078;-78
2023/03/27 11:32:33;;;;;;;6.07;1.00;;;7.80;99.90;;;;;;5126707;27;20457;-78
2023/03/27 11:35:12;;;;;;;3.65;0.38;;;7.50;99.90;;;;;;5124562;27;20098;-78
2023/03/27 11:37:41;;;;;;;6.63;0.70;;;6.90;99.90;;;;;;5090647;27;20478;-78
2023/03/27 11:40:28;;;;;;;6.97;0.70;;;7.00;99.90;;;;;;5106958;27;20043;-78
2023/03/27 11:42:54;;;;;;;4.70;0.73;;;7.20;99.90;;;;;;5106208;27;20027;-78
2023/03/27 11:45:23;;;;;;;5.53;0.60;;;8.60;99.90;;;;;;5108406;27;20443;-78
2023/03/27 11:48:34;;;;;;;4.35;0.43;;;7.90;99.90;;;;;;5106257;27;20092;-78
2023/03/27 11:51:18;;;;;;;6.22;1.40;;;8.40;99.90;;;;;;5106703;27;20130;-78
2023/03/27 11:54:28;;;;;;;9.60;0.77;;;8.80;99.90;;;;;;5126475;27;20122;-78
2023/03/27 11:56:56;;;;;;;7.68;0.70;;;9.00;99.90;;;;;;5105106;27;20107;-78
2023/03/27 11:59:28;;;;;;;5.63;0.65;;;9.00;99.90;;;;;;5106683;27;20117;-78
2023/03/27 12:02:30;;;;;;;6.03;0.90;;;9.00;99.90;;;;;;5106932;27;20050;-78
2023/03/27 12:05:39;;;;;;;7.43;1.10;;;9.20;99.90;;;;;;5105581;27;20043;-78
2023/03/27 12:08:31;;;;;;;4.57;0.98;;;9.40;99.80;;;;;;5112441;27;20043;-78
2023/03/27 12:11:00;;;;;;;3.05;0.68;;;9.40;99.70;;;;;;5086252;27;20478;-77
2023/03/27 12:14:03;;;;;;;12.38;1.17;;;9.60;99.10;;;;;;5105098;27;20054;-78
2023/03/27 12:16:45;;;;;;;6.88;0.95;;;9.70;97.60;;;;;;5107144;27;20047;-78
2023/03/27 12:19:28;;;;;;;5.15;0.65;;;9.80;97.80;;;;;;5089603;27;20118;-78
2023/03/27 12:22:31;;;;;;;5.82;1.25;;;9.70;97.90;;;;;;5124006;27;20487;-78
2023/03/27 12:25:02;;;;;;;2.90;0.93;;;9.10;94.90;;;;;;5106668;27;20051;-78
2023/03/27 12:27:50;;;;;;;9.35;1.00;;;8.90;97.00;;;;;;5106898;28;20453;-78
2023/03/27 12:30:39;;;;;;;3.90;0.50;;;9.00;96.70;;;;;;5105551;28;20057;-78
2023/03/27 12:33:05;;;;;;;3.05;0.60;;;9.20;96.30;;;;;;5109342;27;20138;-78
2023/03/27 12:35:38;;;;;;;6.20;1.20;;;9.20;96.10;;;;;;5088437;27;20047;-78
2023/03/27 12:38:20;;;;;;;3.72;0.40;;;9.10;96.60;;;;;;5106442;27;20402;-78
2023/03/27 12:41:12;;;;;;;6.72;1.85;;;9.20;96.70;;;;;;5107108;28;20039;-78
2023/03/27 12:43:44;;;;;;;11.70;1.10;;;9.20;97.60;;;;;;5104946;28;20043;-78
2023/03/27 12:46:22;;;;;;;6.57;0.73;;;9.40;97.70;;;;;;5106787;28;20078;-81
2023/03/27 12:48:55;;;;;;;11.15;0.80;;;9.30;97.00;;;;;;5089101;28;20096;-81
2023/03/27 12:51:50;;;;;;;5.35;0.70;;;9.50;97.20;;;;;;5106068;28;20043;-80
2023/03/27 12:54:29;;;;;;;6.18;0.73;;;9.40;96.60;;;;;;5107215;28;20055;-77
2023/03/27 12:57:14;;;;;;;3.70;0.75;;;9.40;97.50;;;;;;5105613;28;20073;-77
2023/03/27 12:59:57;;;;;;;5.53;0.52;;;9.70;98.10;;;;;;5105596;28;20047;-79
2023/03/27 13:02:48;;;;;;;9.80;0.70;;;9.80;97.30;;;;;;5106868;28;20031;-79
2023/03/27 13:05:27;;;;;;;5.13;0.57;;;9.80;97.60;;;;;;5088045;28;20070;-78
2023/03/27 13:08:20;;;;;;;5.70;1.02;;;9.90;98.00;;;;;;5106211;28;20519;-79
2023/03/27 13:10:55;;;;;;;;;;;9.70;97.50;;;;;;5094032;28;20061;-79
2023/03/27 13:14:09;;;;;;;5.05;0.60;;;9.50;97.50;;;;;;5121492;28;19920;-78
2023/03/27 13:16:37;;;;;;;;;;;9.40;98.70;;;;;;5051266;28;20095;-80
2023/03/27 13:19:26;;;;;;;8.02;0.77;;;9.50;99.20;;;;;;5089069;28;19920;-78
2023/03/27 13:22:04;;;;;;;5.35;0.88;;;9.70;99.60;;;;;;5105196;28;20043;-77
2023/03/27 13:24:46;;;;;;;9.20;1.17;;;9.70;99.30;;;;;;5106686;28;20054;-79